sensor_id;sensor_type;location;lat;lon;timestamp;temperature;humidity
9544;DHT22;30418;51.45933468;7.33152330;2022-07-19T00:00:18;28.60;36.70
9544;DHT22;30418;51.45933468;7.33152330;2022-07-19T00:02:50;28.60;36.70
9544;DHT22;30418;51.45933468;7.33152330;2022-07-19T00:05:22;28.60;36.60
9544;DHT22;30418;51.45933468;7.33152330;2022-07-19T00:07:51;28.50;36.70
9544;DHT22;30418;51.45933468;7.33152330;2022-07-19T00:10:20;28.50;36.70
9544;DHT22;30418;51.45933468;7.33152330;2022-07-19T00:12:48;28.50;36.80
9544;DHT22;30418;51.45933468;7.33152330;2022-07-19T00:15:18;28.40;36.80
9544;DHT22;30418;51.45933468;7.33152330;2022-07-19T00:17:47;28.40;36.80
9544;DHT22;30418;51.45933468;7.33152330;2022-07-19T00:20:19;28.30;36.90
9544;DHT22;30418;51.45933468;7.33152330;2022-07-19T00:22:50;28.30;36.90
9544;DHT22;30418;51.45933468;7.33152330;2022-07-19T00:25:19;28.30;36.90
9544;DHT22;30418;51.45933468;7.33152330;2022-07-19T00:27:48;28.30;37.00
9544;DHT22;30418;51.45933468;7.33152330;2022-07-19T00:30:17;28.20;37.00
9544;DHT22;30418;51.45933468;7.33152330;2022-07-19T00:32:45;28.20;37.10
9544;DHT22;30418;51.45933468;7.33152330;2022-07-19T00:35:14;28.20;37.20
9544;DHT22;30418;51.45933468;7.33152330;2022-07-19T00:37:43;28.10;37.10
9544;DHT22;30418;51.45933468;7.33152330;2022-07-19T00:40:20;28.10;37.30
9544;DHT22;30418;51.45933468;7.33152330;2022-07-19T00:42:51;28.10;37.50
9544;DHT22;30418;51.45933468;7.33152330;2022-07-19T00:45:22;28.00;37.30
9544;DHT22;30418;51.45933468;7.33152330;2022-07-19T00:47:51;28.00;37.40
9544;DHT22;30418;51.45933468;7.33152330;2022-07-19T00:50:20;28.00;37.50
9544;DHT22;30418;51.45933468;7.33152330;2022-07-19T00:52:50;28.00;37.50
9544;DHT22;30418;51.45933468;7.33152330;2022-07-19T00:55:23;28.00;37.70
9544;DHT22;30418;51.45933468;7.33152330;2022-07-19T00:57:55;27.90;37.80
9544;DHT22;30418;51.45933468;7.33152330;2022-07-19T01:00:25;27.90;37.80
9544;DHT22;30418;51.45933468;7.33152330;2022-07-19T01:02:55;27.90;37.80
9544;DHT22;30418;51.45933468;7.33152330;2022-07-19T01:05:23;27.90;37.80
9544;DHT22;30418;51.45933468;7.33152330;2022-07-19T01:07:53;27.80;37.80
9544;DHT22;30418;51.45933468;7.33152330;2022-07-19T01:10:23;27.80;37.80
9544;DHT22;30418;51.45933468;7.33152330;2022-07-19T01:12:52;27.80;38.00
9544;DHT22;30418;51.45933468;7.33152330;2022-07-19T01:15:23;27.80;38.00
9544;DHT22;30418;51.45933468;7.33152330;2022-07-19T01:17:54;27.70;38.10
9544;DHT22;30418;51.45933468;7.33152330;2022-07-19T01:20:23;27.70;38.10
9544;DHT22;30418;51.45933468;7.33152330;2022-07-19T01:22:58;27.60;38.20
9544;DHT22;30418;51.45933468;7.33152330;2022-07-19T01:25:28;27.60;38.30
9544;DHT22;30418;51.45933468;7.33152330;2022-07-19T01:27:59;27.60;38.20
9544;DHT22;30418;51.45933468;7.33152330;2022-07-19T01:30:28;27.60;38.30
9544;DHT22;30418;51.45933468;7.33152330;2022-07-19T01:32:57;27.50;38.30
9544;DHT22;30418;51.45933468;7.33152330;2022-07-19T01:35:26;27.50;38.30
9544;DHT22;30418;51.45933468;7.33152330;2022-07-19T01:37:57;27.50;38.30
9544;DHT22;30418;51.45933468;7.33152330;2022-07-19T01:40:26;27.50;38.30
9544;DHT22;30418;51.45933468;7.33152330;2022-07-19T01:42:55;27.50;38.30
9544;DHT22;30418;51.45933468;7.33152330;2022-07-19T01:45:23;27.40;38.30
9544;DHT22;30418;51.45933468;7.33152330;2022-07-19T01:47:53;27.40;38.40
9544;DHT22;30418;51.45933468;7.33152330;2022-07-19T01:50:21;27.40;38.40
9544;DHT22;30418;51.45933468;7.33152330;2022-07-19T01:52:50;27.40;38.40
9544;DHT22;30418;51.45933468;7.33152330;2022-07-19T01:55:20;27.30;38.30
9544;DHT22;30418;51.45933468;7.33152330;2022-07-19T01:57:49;27.30;38.50
9544;DHT22;30418;51.45933468;7.33152330;2022-07-19T02:00:18;27.30;38.50
9544;DHT22;30418;51.45933468;7.33152330;2022-07-19T02:02:47;27.30;38.50
9544;DHT22;30418;51.45933468;7.33152330;2022-07-19T02:05:15;27.30;38.60
9544;DHT22;30418;51.45933468;7.33152330;2022-07-19T02:07:46;27.20;38.60
9544;DHT22;30418;51.45933468;7.33152330;2022-07-19T02:10:15;27.20;38.60
9544;DHT22;30418;51.45933468;7.33152330;2022-07-19T02:12:46;27.20;38.70
9544;DHT22;30418;51.45933468;7.33152330;2022-07-19T02:15:15;27.10;38.70
9544;DHT22;30418;51.45933468;7.33152330;2022-07-19T02:17:44;27.20;38.80
9544;DHT22;30418;51.45933468;7.33152330;2022-07-19T02:20:13;27.10;38.80
9544;DHT22;30418;51.45933468;7.33152330;2022-07-19T02:22:42;27.10;38.90
9544;DHT22;30418;51.45933468;7.33152330;2022-07-19T02:25:11;27.10;38.90
9544;DHT22;30418;51.45933468;7.33152330;2022-07-19T02:27:40;27.10;39.00
9544;DHT22;30418;51.45933468;7.33152330;2022-07-19T02:30:12;27.00;39.00
9544;DHT22;30418;51.45933468;7.33152330;2022-07-19T02:32:41;27.00;39.10
9544;DHT22;30418;51.45933468;7.33152330;2022-07-19T02:35:11;27.00;39.00
9544;DHT22;30418;51.45933468;7.33152330;2022-07-19T02:37:40;27.00;39.10
9544;DHT22;30418;51.45933468;7.33152330;2022-07-19T02:40:09;27.00;39.10
9544;DHT22;30418;51.45933468;7.33152330;2022-07-19T02:42:38;27.00;39.20
9544;DHT22;30418;51.45933468;7.33152330;2022-07-19T02:45:08;27.00;39.20
9544;DHT22;30418;51.45933468;7.33152330;2022-07-19T02:47:38;26.90;39.20
9544;DHT22;30418;51.45933468;7.33152330;2022-07-19T02:50:07;26.90;39.20
9544;DHT22;30418;51.45933468;7.33152330;2022-07-19T02:52:36;26.90;39.20
9544;DHT22;30418;51.45933468;7.33152330;2022-07-19T02:55:06;26.90;39.20
9544;DHT22;30418;51.45933468;7.33152330;2022-07-19T02:57:35;26.80;39.30
9544;DHT22;30418;51.45933468;7.33152330;2022-07-19T03:00:06;26.80;39.30
9544;DHT22;30418;51.45933468;7.33152330;2022-07-19T03:02:38;26.80;39.40
9544;DHT22;30418;51.45933468;7.33152330;2022-07-19T03:05:07;26.80;39.50
9544;DHT22;30418;51.45933468;7.33152330;2022-07-19T03:07:36;26.80;39.50
9544;DHT22;30418;51.45933468;7.33152330;2022-07-19T03:10:06;26.80;39.60
9544;DHT22;30418;51.45933468;7.33152330;2022-07-19T03:12:35;26.70;39.60
9544;DHT22;30418;51.45933468;7.33152330;2022-07-19T03:15:05;26.70;39.60
9544;DHT22;30418;51.45933468;7.33152330;2022-07-19T03:17:34;26.70;39.70
9544;DHT22;30418;51.45933468;7.33152330;2022-07-19T03:20:05;26.70;39.60
9544;DHT22;30418;51.45933468;7.33152330;2022-07-19T03:22:35;26.60;39.70
9544;DHT22;30418;51.45933468;7.33152330;2022-07-19T03:25:05;26.60;39.70
9544;DHT22;30418;51.45933468;7.33152330;2022-07-19T03:27:34;26.60;39.70
9544;DHT22;30418;51.45933468;7.33152330;2022-07-19T03:30:04;26.60;39.70
9544;DHT22;30418;51.45933468;7.33152330;2022-07-19T03:32:33;26.60;39.70
9544;DHT22;30418;51.45933468;7.33152330;2022-07-19T03:35:04;26.60;39.70
9544;DHT22;30418;51.45933468;7.33152330;2022-07-19T03:37:33;26.60;39.70
9544;DHT22;30418;51.45933468;7.33152330;2022-07-19T03:40:02;26.50;39.70
9544;DHT22;30418;51.45933468;7.33152330;2022-07-19T03:42:32;26.50;39.80
9544;DHT22;30418;51.45933468;7.33152330;2022-07-19T03:45:00;26.50;39.80
9544;DHT22;30418;51.45933468;7.33152330;2022-07-19T03:47:29;26.50;39.90
9544;DHT22;30418;51.45933468;7.33152330;2022-07-19T03:49:58;26.50;40.00
9544;DHT22;30418;51.45933468;7.33152330;2022-07-19T03:52:28;26.50;40.00
9544;DHT22;30418;51.45933468;7.33152330;2022-07-19T03:54:56;26.50;40.10
9544;DHT22;30418;51.45933468;7.33152330;2022-07-19T03:57:25;26.40;40.10
9544;DHT22;30418;51.45933468;7.33152330;2022-07-19T03:59:54;26.40;40.10
9544;DHT22;30418;51.45933468;7.33152330;2022-07-19T04:02:22;26.40;40.10
9544;DHT22;30418;51.45933468;7.33152330;2022-07-19T04:04:51;26.40;40.20
9544;DHT22;30418;51.45933468;7.33152330;2022-07-19T04:07:20;26.40;40.20
9544;DHT22;30418;51.45933468;7.33152330;2022-07-19T04:09:50;26.40;40.30
9544;DHT22;30418;51.45933468;7.33152330;2022-07-19T04:12:18;26.40;40.30
9544;DHT22;30418;51.45933468;7.33152330;2022-07-19T04:14:47;26.40;40.30
9544;DHT22;30418;51.45933468;7.33152330;2022-07-19T04:17:16;26.30;40.30
9544;DHT22;30418;51.45933468;7.33152330;2022-07-19T04:19:44;26.30;40.30
9544;DHT22;30418;51.45933468;7.33152330;2022-07-19T04:22:13;26.30;40.40
9544;DHT22;30418;51.45933468;7.33152330;2022-07-19T04:24:42;26.30;40.50
9544;DHT22;30418;51.45933468;7.33152330;2022-07-19T04:27:12;26.30;40.50
9544;DHT22;30418;51.45933468;7.33152330;2022-07-19T04:29:41;26.20;40.60
9544;DHT22;30418;51.45933468;7.33152330;2022-07-19T04:32:09;26.20;40.60
9544;DHT22;30418;51.45933468;7.33152330;2022-07-19T04:34:46;26.20;40.60
9544;DHT22;30418;51.45933468;7.33152330;2022-07-19T04:37:15;26.20;40.70
9544;DHT22;30418;51.45933468;7.33152330;2022-07-19T04:39:43;26.20;40.70
9544;DHT22;30418;51.45933468;7.33152330;2022-07-19T04:42:13;26.20;40.80
9544;DHT22;30418;51.45933468;7.33152330;2022-07-19T04:44:42;26.20;40.90
9544;DHT22;30418;51.45933468;7.33152330;2022-07-19T04:47:11;26.20;40.90
9544;DHT22;30418;51.45933468;7.33152330;2022-07-19T04:49:39;26.20;41.60
9544;DHT22;30418;51.45933468;7.33152330;2022-07-19T04:52:08;26.20;41.00
9544;DHT22;30418;51.45933468;7.33152330;2022-07-19T04:54:37;26.20;41.00
9544;DHT22;30418;51.45933468;7.33152330;2022-07-19T04:57:06;26.20;41.00
9544;DHT22;30418;51.45933468;7.33152330;2022-07-19T04:59:35;26.20;41.10
9544;DHT22;30418;51.45933468;7.33152330;2022-07-19T05:02:04;26.20;41.20
9544;DHT22;30418;51.45933468;7.33152330;2022-07-19T05:04:33;26.20;41.00
9544;DHT22;30418;51.45933468;7.33152330;2022-07-19T05:07:02;26.20;41.20
9544;DHT22;30418;51.45933468;7.33152330;2022-07-19T05:09:31;26.20;41.20
9544;DHT22;30418;51.45933468;7.33152330;2022-07-19T05:12:00;26.20;41.20
9544;DHT22;30418;51.45933468;7.33152330;2022-07-19T05:14:32;26.20;41.20
9544;DHT22;30418;51.45933468;7.33152330;2022-07-19T05:17:02;26.20;41.20
9544;DHT22;30418;51.45933468;7.33152330;2022-07-19T05:19:30;26.20;41.20
9544;DHT22;30418;51.45933468;7.33152330;2022-07-19T05:21:59;26.20;41.20
9544;DHT22;30418;51.45933468;7.33152330;2022-07-19T05:24:28;26.20;41.20
9544;DHT22;30418;51.45933468;7.33152330;2022-07-19T05:26:57;26.20;41.30
9544;DHT22;30418;51.45933468;7.33152330;2022-07-19T05:29:25;26.20;41.30
9544;DHT22;30418;51.45933468;7.33152330;2022-07-19T05:31:54;26.30;41.40
9544;DHT22;30418;51.45933468;7.33152330;2022-07-19T05:34:24;26.30;41.40
9544;DHT22;30418;51.45933468;7.33152330;2022-07-19T05:36:53;26.30;41.90
9544;DHT22;30418;51.45933468;7.33152330;2022-07-19T05:39:21;26.30;41.50
9544;DHT22;30418;51.45933468;7.33152330;2022-07-19T05:41:50;26.40;41.40
9544;DHT22;30418;51.45933468;7.33152330;2022-07-19T05:44:19;26.40;41.40
9544;DHT22;30418;51.45933468;7.33152330;2022-07-19T05:46:48;26.40;41.40
9544;DHT22;30418;51.45933468;7.33152330;2022-07-19T05:49:17;26.40;41.50
9544;DHT22;30418;51.45933468;7.33152330;2022-07-19T05:51:47;26.40;41.40
9544;DHT22;30418;51.45933468;7.33152330;2022-07-19T05:54:16;26.50;41.60
9544;DHT22;30418;51.45933468;7.33152330;2022-07-19T05:56:45;26.50;41.50
9544;DHT22;30418;51.45933468;7.33152330;2022-07-19T05:59:14;26.50;41.50
9544;DHT22;30418;51.45933468;7.33152330;2022-07-19T06:01:43;26.50;41.50
9544;DHT22;30418;51.45933468;7.33152330;2022-07-19T06:04:12;26.50;41.50
9544;DHT22;30418;51.45933468;7.33152330;2022-07-19T06:06:41;26.60;41.70
9544;DHT22;30418;51.45933468;7.33152330;2022-07-19T06:09:11;26.60;41.80
9544;DHT22;30418;51.45933468;7.33152330;2022-07-19T06:11:40;26.60;41.80
9544;DHT22;30418;51.45933468;7.33152330;2022-07-19T06:14:09;26.70;41.90
9544;DHT22;30418;51.45933468;7.33152330;2022-07-19T06:16:39;26.70;42.00
9544;DHT22;30418;51.45933468;7.33152330;2022-07-19T06:19:08;26.70;41.90
9544;DHT22;30418;51.45933468;7.33152330;2022-07-19T06:21:39;26.70;41.90
9544;DHT22;30418;51.45933468;7.33152330;2022-07-19T06:24:07;26.80;42.00
9544;DHT22;30418;51.45933468;7.33152330;2022-07-19T06:26:37;26.80;42.00
9544;DHT22;30418;51.45933468;7.33152330;2022-07-19T06:29:06;26.80;42.00
9544;DHT22;30418;51.45933468;7.33152330;2022-07-19T06:31:35;26.90;42.00
9544;DHT22;30418;51.45933468;7.33152330;2022-07-19T06:34:05;26.90;41.90
9544;DHT22;30418;51.45933468;7.33152330;2022-07-19T06:36:39;26.90;41.90
9544;DHT22;30418;51.45933468;7.33152330;2022-07-19T06:39:08;27.00;41.90
9544;DHT22;30418;51.45933468;7.33152330;2022-07-19T06:41:38;27.00;41.90
9544;DHT22;30418;51.45933468;7.33152330;2022-07-19T06:44:17;27.00;41.90
9544;DHT22;30418;51.45933468;7.33152330;2022-07-19T06:46:45;27.10;41.80
9544;DHT22;30418;51.45933468;7.33152330;2022-07-19T06:49:21;27.10;41.70
9544;DHT22;30418;51.45933468;7.33152330;2022-07-19T06:51:50;27.20;41.80
9544;DHT22;30418;51.45933468;7.33152330;2022-07-19T06:54:18;27.20;41.80
9544;DHT22;30418;51.45933468;7.33152330;2022-07-19T06:56:48;27.30;41.80
9544;DHT22;30418;51.45933468;7.33152330;2022-07-19T06:59:17;27.30;41.80
9544;DHT22;30418;51.45933468;7.33152330;2022-07-19T07:01:45;27.30;41.70
9544;DHT22;30418;51.45933468;7.33152330;2022-07-19T07:04:15;27.30;41.70
9544;DHT22;30418;51.45933468;7.33152330;2022-07-19T07:06:55;27.40;41.70
9544;DHT22;30418;51.45933468;7.33152330;2022-07-19T07:09:23;27.50;41.60
9544;DHT22;30418;51.45933468;7.33152330;2022-07-19T07:11:54;27.50;41.50
9544;DHT22;30418;51.45933468;7.33152330;2022-07-19T07:14:22;27.60;41.50
9544;DHT22;30418;51.45933468;7.33152330;2022-07-19T07:16:51;27.60;41.40
9544;DHT22;30418;51.45933468;7.33152330;2022-07-19T07:19:19;27.70;41.40
9544;DHT22;30418;51.45933468;7.33152330;2022-07-19T07:21:48;27.70;41.60
9544;DHT22;30418;51.45933468;7.33152330;2022-07-19T07:24:17;27.80;41.50
9544;DHT22;30418;51.45933468;7.33152330;2022-07-19T07:26:46;27.80;41.50
9544;DHT22;30418;51.45933468;7.33152330;2022-07-19T07:29:16;27.90;41.50
9544;DHT22;30418;51.45933468;7.33152330;2022-07-19T07:31:45;27.90;41.40
9544;DHT22;30418;51.45933468;7.33152330;2022-07-19T07:34:13;28.00;41.40
9544;DHT22;30418;51.45933468;7.33152330;2022-07-19T07:36:42;28.00;41.30
9544;DHT22;30418;51.45933468;7.33152330;2022-07-19T07:39:12;28.10;41.10
9544;DHT22;30418;51.45933468;7.33152330;2022-07-19T07:41:42;28.20;41.20
9544;DHT22;30418;51.45933468;7.33152330;2022-07-19T07:44:28;28.20;41.20
9544;DHT22;30418;51.45933468;7.33152330;2022-07-19T07:46:56;28.30;41.20
9544;DHT22;30418;51.45933468;7.33152330;2022-07-19T07:49:25;28.30;40.90
9544;DHT22;30418;51.45933468;7.33152330;2022-07-19T07:51:54;28.40;40.80
9544;DHT22;30418;51.45933468;7.33152330;2022-07-19T07:54:24;28.50;41.00
9544;DHT22;30418;51.45933468;7.33152330;2022-07-19T07:56:53;28.60;40.90
9544;DHT22;30418;51.45933468;7.33152330;2022-07-19T07:59:22;28.60;40.90
9544;DHT22;30418;51.45933468;7.33152330;2022-07-19T08:01:52;28.70;40.90
9544;DHT22;30418;51.45933468;7.33152330;2022-07-19T08:04:26;28.80;40.70
9544;DHT22;30418;51.45933468;7.33152330;2022-07-19T08:06:54;28.90;40.40
9544;DHT22;30418;51.45933468;7.33152330;2022-07-19T08:09:23;29.10;40.60
9544;DHT22;30418;51.45933468;7.33152330;2022-07-19T08:11:52;29.20;40.50
9544;DHT22;30418;51.45933468;7.33152330;2022-07-19T08:14:21;29.30;40.30
9544;DHT22;30418;51.45933468;7.33152330;2022-07-19T08:16:51;29.40;40.00
9544;DHT22;30418;51.45933468;7.33152330;2022-07-19T08:19:20;29.50;40.00
9544;DHT22;30418;51.45933468;7.33152330;2022-07-19T08:21:49;29.60;39.80
9544;DHT22;30418;51.45933468;7.33152330;2022-07-19T08:24:17;29.70;39.60
9544;DHT22;30418;51.45933468;7.33152330;2022-07-19T08:26:46;29.80;39.40
9544;DHT22;30418;51.45933468;7.33152330;2022-07-19T08:29:15;30.00;39.10
9544;DHT22;30418;51.45933468;7.33152330;2022-07-19T08:31:44;30.10;39.00
9544;DHT22;30418;51.45933468;7.33152330;2022-07-19T08:34:14;30.20;38.70
9544;DHT22;30418;51.45933468;7.33152330;2022-07-19T08:36:43;30.30;38.60
9544;DHT22;30418;51.45933468;7.33152330;2022-07-19T08:39:11;30.40;38.40
9544;DHT22;30418;51.45933468;7.33152330;2022-07-19T08:41:42;30.60;38.20
9544;DHT22;30418;51.45933468;7.33152330;2022-07-19T08:44:13;30.60;37.80
9544;DHT22;30418;51.45933468;7.33152330;2022-07-19T08:46:43;30.70;37.60
9544;DHT22;30418;51.45933468;7.33152330;2022-07-19T08:49:13;30.90;37.50
9544;DHT22;30418;51.45933468;7.33152330;2022-07-19T08:51:42;30.90;37.60
9544;DHT22;30418;51.45933468;7.33152330;2022-07-19T08:54:11;31.00;37.50
9544;DHT22;30418;51.45933468;7.33152330;2022-07-19T08:56:40;31.20;37.20
9544;DHT22;30418;51.45933468;7.33152330;2022-07-19T08:59:26;31.30;37.00
9544;DHT22;30418;51.45933468;7.33152330;2022-07-19T09:01:55;31.40;36.70
9544;DHT22;30418;51.45933468;7.33152330;2022-07-19T09:04:25;31.40;36.20
9544;DHT22;30418;51.45933468;7.33152330;2022-07-19T09:06:57;31.60;36.10
9544;DHT22;30418;51.45933468;7.33152330;2022-07-19T09:09:28;31.70;35.90
9544;DHT22;30418;51.45933468;7.33152330;2022-07-19T09:12:00;31.80;35.60
9544;DHT22;30418;51.45933468;7.33152330;2022-07-19T09:14:30;31.90;35.30
9544;DHT22;30418;51.45933468;7.33152330;2022-07-19T09:17:02;32.00;35.60
9544;DHT22;30418;51.45933468;7.33152330;2022-07-19T09:19:39;32.10;35.10
9544;DHT22;30418;51.45933468;7.33152330;2022-07-19T09:22:11;32.20;35.10
9544;DHT22;30418;51.45933468;7.33152330;2022-07-19T09:24:43;32.30;34.70
9544;DHT22;30418;51.45933468;7.33152330;2022-07-19T09:27:15;32.30;34.70
9544;DHT22;30418;51.45933468;7.33152330;2022-07-19T09:29:46;32.40;34.70
9544;DHT22;30418;51.45933468;7.33152330;2022-07-19T09:32:17;32.50;34.40
9544;DHT22;30418;51.45933468;7.33152330;2022-07-19T09:34:51;32.60;33.70
9544;DHT22;30418;51.45933468;7.33152330;2022-07-19T09:37:23;32.70;33.30
9544;DHT22;30418;51.45933468;7.33152330;2022-07-19T09:39:54;32.80;33.20
9544;DHT22;30418;51.45933468;7.33152330;2022-07-19T09:42:34;32.90;33.50
9544;DHT22;30418;51.45933468;7.33152330;2022-07-19T09:45:05;33.00;32.90
9544;DHT22;30418;51.45933468;7.33152330;2022-07-19T09:47:37;33.00;32.90
9544;DHT22;30418;51.45933468;7.33152330;2022-07-19T09:50:10;33.10;32.70
9544;DHT22;30418;51.45933468;7.33152330;2022-07-19T09:52:40;33.20;32.40
9544;DHT22;30418;51.45933468;7.33152330;2022-07-19T09:55:15;33.20;32.30
9544;DHT22;30418;51.45933468;7.33152330;2022-07-19T09:57:46;33.30;32.10
9544;DHT22;30418;51.45933468;7.33152330;2022-07-19T10:00:17;33.40;31.90
9544;DHT22;30418;51.45933468;7.33152330;2022-07-19T10:02:50;33.50;31.80
9544;DHT22;30418;51.45933468;7.33152330;2022-07-19T10:05:22;33.50;31.50
9544;DHT22;30418;51.45933468;7.33152330;2022-07-19T10:07:51;33.60;31.10
9544;DHT22;30418;51.45933468;7.33152330;2022-07-19T10:10:22;33.70;31.00
9544;DHT22;30418;51.45933468;7.33152330;2022-07-19T10:12:52;33.80;30.80
9544;DHT22;30418;51.45933468;7.33152330;2022-07-19T10:15:21;33.80;30.80
9544;DHT22;30418;51.45933468;7.33152330;2022-07-19T10:18:00;33.90;30.70
9544;DHT22;30418;51.45933468;7.33152330;2022-07-19T10:20:35;34.00;30.10
9544;DHT22;30418;51.45933468;7.33152330;2022-07-19T10:23:05;34.10;30.10
9544;DHT22;30418;51.45933468;7.33152330;2022-07-19T10:25:40;34.20;30.10
9544;DHT22;30418;51.45933468;7.33152330;2022-07-19T10:28:27;34.20;29.90
9544;DHT22;30418;51.45933468;7.33152330;2022-07-19T10:31:27;34.30;29.50
9544;DHT22;30418;51.45933468;7.33152330;2022-07-19T10:33:59;34.40;29.50
9544;DHT22;30418;51.45933468;7.33152330;2022-07-19T10:36:44;34.40;29.80
9544;DHT22;30418;51.45933468;7.33152330;2022-07-19T10:39:25;34.50;29.40
9544;DHT22;30418;51.45933468;7.33152330;2022-07-19T10:42:09;34.60;29.10
9544;DHT22;30418;51.45933468;7.33152330;2022-07-19T10:45:13;34.60;29.20
9544;DHT22;30418;51.45933468;7.33152330;2022-07-19T10:48:12;34.70;28.90
9544;DHT22;30418;51.45933468;7.33152330;2022-07-19T10:53:54;34.80;28.90
9544;DHT22;30418;51.45933468;7.33152330;2022-07-19T10:56:34;34.90;28.90
9544;DHT22;30418;51.45933468;7.33152330;2022-07-19T10:59:31;35.00;28.80
9544;DHT22;30418;51.45933468;7.33152330;2022-07-19T11:02:05;35.10;28.40
9544;DHT22;30418;51.45933468;7.33152330;2022-07-19T11:04:54;35.10;29.10
9544;DHT22;30418;51.45933468;7.33152330;2022-07-19T11:07:24;35.20;28.50
9544;DHT22;30418;51.45933468;7.33152330;2022-07-19T11:09:58;35.20;28.30
9544;DHT22;30418;51.45933468;7.33152330;2022-07-19T11:12:36;35.30;27.90
9544;DHT22;30418;51.45933468;7.33152330;2022-07-19T11:15:22;35.30;27.70
9544;DHT22;30418;51.45933468;7.33152330;2022-07-19T11:17:58;35.40;28.10
9544;DHT22;30418;51.45933468;7.33152330;2022-07-19T11:20:30;35.50;27.80
9544;DHT22;30418;51.45933468;7.33152330;2022-07-19T11:23:00;35.50;27.80
9544;DHT22;30418;51.45933468;7.33152330;2022-07-19T11:25:34;35.60;27.90
9544;DHT22;30418;51.45933468;7.33152330;2022-07-19T11:28:06;35.60;27.60
9544;DHT22;30418;51.45933468;7.33152330;2022-07-19T11:30:35;35.70;28.00
9544;DHT22;30418;51.45933468;7.33152330;2022-07-19T11:33:05;35.70;27.90
9544;DHT22;30418;51.45933468;7.33152330;2022-07-19T11:35:43;35.70;27.40
9544;DHT22;30418;51.45933468;7.33152330;2022-07-19T11:38:20;35.80;27.50
9544;DHT22;30418;51.45933468;7.33152330;2022-07-19T11:40:50;35.80;27.40
9544;DHT22;30418;51.45933468;7.33152330;2022-07-19T11:43:22;35.80;27.20
9544;DHT22;30418;51.45933468;7.33152330;2022-07-19T11:45:51;35.80;27.20
9544;DHT22;30418;51.45933468;7.33152330;2022-07-19T11:48:25;35.80;27.30
9544;DHT22;30418;51.45933468;7.33152330;2022-07-19T11:50:59;35.90;27.00
9544;DHT22;30418;51.45933468;7.33152330;2022-07-19T11:53:30;36.00;26.80
9544;DHT22;30418;51.45933468;7.33152330;2022-07-19T11:56:00;36.00;27.00
9544;DHT22;30418;51.45933468;7.33152330;2022-07-19T11:58:29;36.00;26.60
9544;DHT22;30418;51.45933468;7.33152330;2022-07-19T12:01:03;36.10;26.70
9544;DHT22;30418;51.45933468;7.33152330;2022-07-19T12:03:33;36.10;26.40
9544;DHT22;30418;51.45933468;7.33152330;2022-07-19T12:06:04;36.20;26.50
9544;DHT22;30418;51.45933468;7.33152330;2022-07-19T12:08:37;36.20;26.40
9544;DHT22;30418;51.45933468;7.33152330;2022-07-19T12:11:20;36.30;26.80
9544;DHT22;30418;51.45933468;7.33152330;2022-07-19T12:13:51;36.30;26.10
9544;DHT22;30418;51.45933468;7.33152330;2022-07-19T12:16:22;36.40;26.40
9544;DHT22;30418;51.45933468;7.33152330;2022-07-19T12:18:54;36.40;26.30
9544;DHT22;30418;51.45933468;7.33152330;2022-07-19T12:21:26;36.50;26.20
9544;DHT22;30418;51.45933468;7.33152330;2022-07-19T12:24:15;36.50;26.20
9544;DHT22;30418;51.45933468;7.33152330;2022-07-19T12:26:59;36.60;25.80
9544;DHT22;30418;51.45933468;7.33152330;2022-07-19T12:29:31;36.70;25.90
9544;DHT22;30418;51.45933468;7.33152330;2022-07-19T12:32:06;36.70;26.10
9544;DHT22;30418;51.45933468;7.33152330;2022-07-19T12:34:43;36.70;25.90
9544;DHT22;30418;51.45933468;7.33152330;2022-07-19T12:37:21;36.80;25.60
9544;DHT22;30418;51.45933468;7.33152330;2022-07-19T12:39:59;36.90;25.50
9544;DHT22;30418;51.45933468;7.33152330;2022-07-19T12:42:39;36.90;25.60
9544;DHT22;30418;51.45933468;7.33152330;2022-07-19T12:45:11;36.90;25.30
9544;DHT22;30418;51.45933468;7.33152330;2022-07-19T12:47:42;37.00;25.50
9544;DHT22;30418;51.45933468;7.33152330;2022-07-19T12:50:19;37.00;25.30
9544;DHT22;30418;51.45933468;7.33152330;2022-07-19T12:52:49;37.10;24.80
9544;DHT22;30418;51.45933468;7.33152330;2022-07-19T12:55:20;37.10;24.90
9544;DHT22;30418;51.45933468;7.33152330;2022-07-19T12:57:51;37.10;24.80
9544;DHT22;30418;51.45933468;7.33152330;2022-07-19T13:00:22;37.20;24.90
9544;DHT22;30418;51.45933468;7.33152330;2022-07-19T13:02:52;37.20;24.80
9544;DHT22;30418;51.45933468;7.33152330;2022-07-19T13:05:23;37.30;24.60
9544;DHT22;30418;51.45933468;7.33152330;2022-07-19T13:07:52;37.30;24.60
9544;DHT22;30418;51.45933468;7.33152330;2022-07-19T13:10:21;37.40;24.60
9544;DHT22;30418;51.45933468;7.33152330;2022-07-19T13:12:51;37.40;24.60
9544;DHT22;30418;51.45933468;7.33152330;2022-07-19T13:15:20;37.50;24.40
9544;DHT22;30418;51.45933468;7.33152330;2022-07-19T13:17:49;37.50;24.40
9544;DHT22;30418;51.45933468;7.33152330;2022-07-19T13:20:26;37.50;24.20
9544;DHT22;30418;51.45933468;7.33152330;2022-07-19T13:22:55;37.60;24.40
9544;DHT22;30418;51.45933468;7.33152330;2022-07-19T13:25:23;37.60;24.20
9544;DHT22;30418;51.45933468;7.33152330;2022-07-19T13:28:13;37.60;23.90
9544;DHT22;30418;51.45933468;7.33152330;2022-07-19T13:30:41;37.70;23.90
9544;DHT22;30418;51.45933468;7.33152330;2022-07-19T13:33:11;37.70;23.60
9544;DHT22;30418;51.45933468;7.33152330;2022-07-19T13:35:40;37.70;24.10
9544;DHT22;30418;51.45933468;7.33152330;2022-07-19T13:38:09;37.80;23.50
9544;DHT22;30418;51.45933468;7.33152330;2022-07-19T13:40:39;37.80;23.30
9544;DHT22;30418;51.45933468;7.33152330;2022-07-19T13:43:08;37.90;23.30
9544;DHT22;30418;51.45933468;7.33152330;2022-07-19T13:45:38;38.00;23.30
9544;DHT22;30418;51.45933468;7.33152330;2022-07-19T13:48:07;38.00;23.20
9544;DHT22;30418;51.45933468;7.33152330;2022-07-19T13:50:37;38.00;23.00
9544;DHT22;30418;51.45933468;7.33152330;2022-07-19T13:53:06;38.00;22.80
9544;DHT22;30418;51.45933468;7.33152330;2022-07-19T13:55:34;38.10;22.90
9544;DHT22;30418;51.45933468;7.33152330;2022-07-19T13:58:03;38.20;23.00